createdAt,value
2019-04-20T00:00:10.950Z,74.64
2019-04-20T00:02:39.901Z,75.01
2019-04-20T00:05:09.429Z,74.95
2019-04-20T00:07:39.696Z,74.51
2019-04-20T00:10:15.054Z,75.31
2019-04-20T00:12:54.520Z,75.11
2019-04-20T00:15:11.578Z,74.51
2019-04-20T00:17:45.915Z,74.25
2019-04-20T00:20:20.087Z,74.51
2019-04-20T00:22:55.488Z,74.52
2019-04-20T00:25:52.220Z,74.90
2019-04-20T00:28:31.359Z,75.44
2019-04-20T00:31:04.237Z,75.41
2019-04-20T00:35:44.728Z,75.57
2019-04-20T00:38:14.092Z,75.84
2019-04-20T00:40:43.478Z,75.42
2019-04-20T00:43:19.420Z,75.32
2019-04-20T00:45:57.146Z,75.63
2019-04-20T00:48:22.577Z,75.65
2019-04-20T00:50:59.286Z,75.42
2019-04-20T00:53:25.988Z,74.87
2019-04-20T00:55:48.594Z,75.08
2019-04-20T00:58:27.023Z,74.48
2019-04-20T01:01:15.353Z,74.05
2019-04-20T01:03:34.106Z,74.91
2019-04-20T01:06:16.267Z,74.11
2019-04-20T01:08:46.617Z,74.00
2019-04-20T01:11:22.961Z,74.63
2019-04-20T01:13:52.690Z,75.45
2019-04-20T01:16:29.596Z,75.46
2019-04-20T01:18:49.213Z,75.68
2019-04-20T01:21:23.579Z,75.71
2019-04-20T01:23:56.192Z,75.20
2019-04-20T01:26:22.589Z,75.77
2019-04-20T01:29:06.767Z,76.41
2019-04-20T01:31:33.979Z,75.82
2019-04-20T01:34:05.046Z,76.50
2019-04-20T01:36:46.157Z,75.57
2019-04-20T01:39:09.424Z,75.69
2019-04-20T01:41:28.578Z,75.72
2019-04-20T01:43:58.575Z,75.52
2019-04-20T01:46:30.016Z,76.22
2019-04-20T01:49:05.666Z,76.89
2019-04-20T01:51:39.278Z,77.39
2019-04-20T01:54:16.054Z,77.26
2019-04-20T01:56:47.697Z,76.73
2019-04-20T01:59:21.418Z,76.43
2019-04-20T02:01:55.639Z,76.78
2019-04-20T02:04:30.974Z,77.28
2019-04-20T02:06:59.937Z,77.39
2019-04-20T02:09:30.869Z,77.45
2019-04-20T02:12:06.980Z,77.56
2019-04-20T02:14:40.491Z,77.69
2019-04-20T02:17:09.557Z,77.81
2019-04-20T02:19:42.805Z,77.70
2019-04-20T02:22:15.678Z,77.57
2019-04-20T02:24:37.003Z,77.73
2019-04-20T02:27:06.187Z,77.62
2019-04-20T02:30:02.520Z,77.51
2019-04-20T02:35:18.703Z,77.45
2019-04-20T02:37:58.473Z,76.40
2019-04-20T02:40:19.153Z,76.40
2019-04-20T02:42:51.537Z,76.76
2019-04-20T02:45:28.588Z,77.02
2019-04-20T02:47:53.500Z,77.05
2019-04-20T02:50:20.532Z,77.06
2019-04-20T02:52:56.333Z,77.20
2019-04-20T02:55:24.818Z,77.74
2019-04-20T03:00:18.285Z,78.00
2019-04-20T03:02:41.560Z,78.05
2019-04-20T03:05:13.339Z,78.66
2019-04-20T03:07:50.349Z,78.75
2019-04-20T03:10:17.769Z,79.03
2019-04-20T03:12:53.474Z,78.91
2019-04-20T03:15:29.518Z,79.11
2019-04-20T03:18:00.682Z,79.12
2019-04-20T03:20:32.291Z,79.28
2019-04-20T03:23:17.542Z,79.37
2019-04-20T03:25:49.729Z,79.53
2019-04-20T03:28:21.936Z,79.90
2019-04-20T03:31:25.068Z,79.44
2019-04-20T03:33:44.938Z,79.86
2019-04-20T03:36:09.326Z,79.43
2019-04-20T03:38:26.224Z,79.26
2019-04-20T03:40:49.628Z,79.53
2019-04-20T03:43:07.722Z,79.88
2019-04-20T03:45:44.591Z,80.03
2019-04-20T03:48:22.985Z,79.75
2019-04-20T03:50:56.615Z,79.23
2019-04-20T03:53:34.423Z,79.11
2019-04-20T03:56:03.829Z,78.96
2019-04-20T03:58:48.247Z,79.02
2019-04-20T04:01:32.769Z,78.55
2019-04-20T04:04:05.238Z,77.98
2019-04-20T04:06:24.260Z,77.98
2019-04-20T04:08:59.925Z,77.82
2019-04-20T04:11:32.654Z,77.74
2019-04-20T04:13:48.136Z,77.74
2019-04-20T04:16:21.561Z,76.84
2019-04-20T04:18:59.168Z,76.37
2019-04-20T04:21:35.514Z,76.56
2019-04-20T04:24:06.774Z,76.25
2019-04-20T04:26:39.177Z,75.43
2019-04-20T04:29:22.625Z,75.26
2019-04-20T04:31:50.785Z,74.80
2019-04-20T04:34:12.533Z,74.98
2019-04-20T04:36:52.401Z,75.02
2019-04-20T04:39:21.175Z,74.81
2019-04-20T04:41:52.348Z,74.13
2019-04-20T04:44:14.731Z,74.00
2019-04-20T04:46:33.882Z,73.14
2019-04-20T04:49:13.301Z,72.83
2019-04-20T04:51:47.078Z,71.50
2019-04-20T04:54:16.763Z,71.10
2019-04-20T04:56:35.646Z,72.25
2019-04-20T04:59:06.152Z,71.35
2019-04-20T05:01:38.614Z,70.72
2019-04-20T05:04:25.158Z,71.73
2019-04-20T05:06:53.580Z,72.00
2019-04-20T05:09:12.525Z,71.08
2019-04-20T05:11:40.682Z,71.24
2019-04-20T05:14:18.645Z,72.11
2019-04-20T05:16:58.291Z,72.28
2019-04-20T05:19:38.418Z,72.94
2019-04-20T05:22:11.120Z,72.16
2019-04-20T05:24:33.770Z,72.92
2019-04-20T05:27:13.417Z,71.45
2019-04-20T05:29:28.247Z,71.18
2019-04-20T05:31:58.681Z,72.13
2019-04-20T05:34:48.004Z,71.69
2019-04-20T05:37:20.938Z,71.58
2019-04-20T05:39:52.747Z,70.90
2019-04-20T05:42:24.603Z,71.51
2019-04-20T05:44:52.790Z,71.13
2019-04-20T05:47:22.687Z,71.59
2019-04-20T05:49:51.978Z,71.51
2019-04-20T05:52:35.092Z,70.89
2019-04-20T05:54:58.240Z,70.36
2019-04-20T05:57:31.943Z,71.50
2019-04-20T06:00:08.373Z,71.47
2019-04-20T06:02:32.084Z,69.26
2019-04-20T06:05:05.672Z,67.17
2019-04-20T06:07:34.766Z,67.55
2019-04-20T06:10:06.230Z,67.10
2019-04-20T06:12:35.789Z,67.24
2019-04-20T06:15:09.421Z,65.14
2019-04-20T06:18:03.875Z,64.47
2019-04-20T06:23:33.814Z,61.58
2019-04-20T06:28:43.903Z,61.94
2019-04-20T06:31:26.733Z,55.69
2019-04-20T06:34:28.006Z,54.36
2019-04-20T06:36:55.832Z,53.33
2019-04-20T06:39:20.261Z,53.03
2019-04-20T06:44:27.627Z,53.82
2019-04-20T06:46:59.027Z,54.05
2019-04-20T06:49:30.192Z,52.02
2019-04-20T06:51:58.662Z,45.94
2019-04-20T06:54:17.626Z,48.77
2019-04-20T06:56:59.918Z,46.41
2019-04-20T06:59:42.288Z,49.10
2019-04-20T07:02:15.300Z,46.02
2019-04-20T07:07:11.591Z,41.56
2019-04-20T07:09:47.354Z,43.34
2019-04-20T07:12:03.130Z,46.62
2019-04-20T07:14:28.930Z,44.92
2019-04-20T07:17:17.944Z,45.76
2019-04-20T07:19:42.469Z,44.46
2019-04-20T07:27:19.338Z,38.98
2019-04-20T07:30:08.042Z,38.56
2019-04-20T07:32:17.899Z,38.99
2019-04-20T07:34:55.775Z,37.31
2019-04-20T07:38:07.122Z,37.92
2019-04-20T07:40:05.959Z,35.45
2019-04-20T07:42:45.033Z,35.94
2019-04-20T07:45:07.234Z,35.65
2019-04-20T07:47:40.618Z,35.48
2019-04-20T07:50:05.159Z,34.57
2019-04-20T07:52:36.943Z,34.25
2019-04-20T07:55:33.325Z,35.28
2019-04-20T07:57:38.538Z,34.40
2019-04-20T08:00:13.493Z,34.91
2019-04-20T08:03:11.908Z,35.53
2019-04-20T08:08:28.294Z,34.46
2019-04-20T08:11:06.231Z,33.49
2019-04-20T08:13:42.134Z,33.06
2019-04-20T08:16:06.352Z,35.51
2019-04-20T08:18:40.239Z,36.88
2019-04-20T08:21:12.881Z,35.07
2019-04-20T08:23:44.461Z,33.25
2019-04-20T08:26:01.710Z,33.62
2019-04-20T08:28:37.204Z,34.05
2019-04-20T08:31:15.328Z,35.92
2019-04-20T08:34:01.902Z,35.92
2019-04-20T08:36:27.259Z,36.77
2019-04-20T08:39:19.953Z,35.58
2019-04-20T08:41:23.182Z,34.18
2019-04-20T08:44:02.862Z,34.03
2019-04-20T08:46:34.839Z,36.40
2019-04-20T08:49:01.553Z,33.79
2019-04-20T08:51:38.643Z,33.80
2019-04-20T08:54:03.609Z,36.71
2019-04-20T08:56:24.587Z,36.11
2019-04-20T08:58:46.115Z,36.34
2019-04-20T09:01:21.595Z,38.82
2019-04-20T09:04:01.426Z,38.08
2019-04-20T09:06:33.613Z,44.35
2019-04-20T09:09:03.648Z,44.99
2019-04-20T09:11:45.140Z,46.75
2019-04-20T09:13:55.750Z,47.45
2019-04-20T09:16:32.070Z,54.23
2019-04-20T09:18:59.924Z,56.22
2019-04-20T09:21:36.269Z,56.66
2019-04-20T09:24:19.979Z,60.77
2019-04-20T09:26:43.218Z,52.35
2019-04-20T09:29:12.555Z,48.54
2019-04-20T09:31:43.363Z,46.56
2019-04-20T09:34:20.286Z,44.63
2019-04-20T09:36:49.363Z,44.45
2019-04-20T09:39:30.662Z,45.51
2019-04-20T09:42:13.616Z,42.18
2019-04-20T09:44:48.732Z,41.13
2019-04-20T09:47:14.288Z,43.20
2019-04-20T09:49:55.053Z,45.78
2019-04-20T09:52:30.022Z,44.95
2019-04-20T09:55:03.086Z,41.77
2019-04-20T09:57:33.547Z,39.17
2019-04-20T10:00:07.218Z,40.31
2019-04-20T10:02:24.899Z,34.36
2019-04-20T10:04:53.509Z,34.82
2019-04-20T10:07:26.140Z,33.94
2019-04-20T10:09:55.674Z,36.76
2019-04-20T10:12:26.017Z,35.39
2019-04-20T10:15:04.216Z,34.87
2019-04-20T10:17:31.723Z,33.49
2019-04-20T10:20:08.637Z,31.95
2019-04-20T10:22:32.901Z,35.06
2019-04-20T10:25:06.702Z,36.71
2019-04-20T10:27:36.743Z,38.70
2019-04-20T10:30:06.614Z,40.51
2019-04-20T10:32:40.441Z,40.69
2019-04-20T10:35:08.604Z,41.90
2019-04-20T10:37:40.028Z,42.10
2019-04-20T10:40:09.697Z,40.29
2019-04-20T10:42:39.179Z,41.04
2019-04-20T10:45:08.924Z,40.76
2019-04-20T10:47:38.954Z,41.77
2019-04-20T10:50:09.248Z,40.64
2019-04-20T10:52:38.754Z,42.70
2019-04-20T10:55:08.515Z,45.02
2019-04-20T10:57:39.366Z,43.19
2019-04-20T11:00:10.674Z,40.58
2019-04-20T11:02:43.036Z,41.02
2019-04-20T11:05:12.683Z,45.13
2019-04-20T11:07:42.522Z,45.13
2019-04-20T11:10:19.815Z,47.06
2019-04-20T11:12:44.275Z,47.42
2019-04-20T11:15:14.589Z,47.86
2019-04-20T11:17:44.097Z,48.02
2019-04-20T11:20:15.097Z,47.45
2019-04-20T11:22:44.681Z,47.21
2019-04-20T11:25:16.466Z,47.05
2019-04-20T11:27:46.069Z,47.71
2019-04-20T11:30:16.147Z,47.79
2019-04-20T11:32:46.286Z,46.96
2019-04-20T11:35:23.811Z,47.50
2019-04-20T11:37:47.357Z,46.24
2019-04-20T11:40:17.066Z,43.17
2019-04-20T11:42:47.833Z,42.58
2019-04-20T11:45:18.421Z,41.96
2019-04-20T11:47:49.476Z,42.20
2019-04-20T11:50:19.835Z,42.33
2019-04-20T11:52:51.523Z,41.29
2019-04-20T11:55:22.290Z,39.45
2019-04-20T11:57:51.853Z,41.54
2019-04-20T12:00:25.326Z,39.62
2019-04-20T12:03:09.572Z,37.71
2019-04-20T12:05:39.652Z,36.10
2019-04-20T12:08:09.251Z,34.30
2019-04-20T12:10:43.857Z,34.26
2019-04-20T12:13:14.462Z,35.55
2019-04-20T12:15:43.887Z,36.20
2019-04-20T12:18:13.792Z,36.87
2019-04-20T12:20:43.322Z,37.76
2019-04-20T12:23:12.768Z,37.34
2019-04-20T12:25:44.304Z,38.67
2019-04-20T12:28:15.762Z,37.73
2019-04-20T12:30:45.964Z,38.35
2019-04-20T12:33:15.658Z,38.42
2019-04-20T12:35:45.445Z,37.70
2019-04-20T12:38:14.977Z,37.65
2019-04-20T12:40:44.446Z,35.51
2019-04-20T12:43:15.161Z,37.15
2019-04-20T12:45:44.689Z,37.09
2019-04-20T12:48:15.544Z,35.80
2019-04-20T12:50:45.716Z,37.71
2019-04-20T12:53:15.205Z,36.87
2019-04-20T12:55:44.591Z,35.98
2019-04-20T12:58:14.614Z,36.39
2019-04-20T13:00:49.254Z,36.94
2019-04-20T13:03:19.414Z,36.45
2019-04-20T13:05:50.035Z,34.08
2019-04-20T13:08:26.929Z,35.07
2019-04-20T13:10:52.793Z,34.01
2019-04-20T13:13:30.555Z,33.68
2019-04-20T13:16:20.630Z,31.51
2019-04-20T13:18:55.236Z,29.14
2019-04-20T13:21:25.171Z,31.26
2019-04-20T13:23:55.324Z,27.97
2019-04-20T13:26:27.038Z,27.97
2019-04-20T13:29:00.993Z,28.22
2019-04-20T13:31:31.667Z,29.78
2019-04-20T13:34:03.531Z,31.34
2019-04-20T13:36:34.586Z,30.51
2019-04-20T13:39:08.188Z,30.53
2019-04-20T13:41:38.133Z,29.75
2019-04-20T13:44:08.352Z,30.07
2019-04-20T13:46:38.865Z,33.37
2019-04-20T13:49:09.279Z,33.37
2019-04-20T13:51:39.121Z,32.43
2019-04-20T13:54:15.086Z,34.41
2019-04-20T13:56:41.826Z,31.78
2019-04-20T13:59:21.995Z,33.68
2019-04-20T14:01:53.235Z,33.97
2019-04-20T14:04:24.277Z,34.67
2019-04-20T14:06:57.427Z,36.40
2019-04-20T14:09:29.739Z,37.30
2019-04-20T14:12:12.712Z,38.67
2019-04-20T14:14:31.038Z,39.62
2019-04-20T14:17:01.204Z,40.12
2019-04-20T14:19:31.445Z,40.44
2019-04-20T14:22:02.110Z,41.22
2019-04-20T14:24:33.054Z,42.01
2019-04-20T14:27:03.322Z,42.54
2019-04-20T14:29:32.867Z,42.64
2019-04-20T14:32:03.633Z,43.56
2019-04-20T14:34:33.321Z,42.90
2019-04-20T14:37:02.857Z,42.53
2019-04-20T14:39:32.364Z,42.27
2019-04-20T14:42:02.459Z,42.62
2019-04-20T14:44:32.126Z,42.05
2019-04-20T14:47:01.554Z,42.27
2019-04-20T14:49:31.016Z,41.66
2019-04-20T14:52:01.558Z,40.76
2019-04-20T14:57:01.269Z,36.67
2019-04-20T14:59:33.688Z,36.83
2019-04-20T15:02:10.885Z,35.63
2019-04-20T15:04:41.219Z,35.42
2019-04-20T15:07:10.917Z,36.38
2019-04-20T15:09:40.676Z,37.87
2019-04-20T15:12:10.923Z,36.71
2019-04-20T15:14:40.849Z,36.99
2019-04-20T15:17:11.923Z,36.75
2019-04-20T15:19:45.625Z,36.41
2019-04-20T15:22:31.814Z,36.50
2019-04-20T15:25:01.274Z,35.94
2019-04-20T15:27:30.681Z,36.07
2019-04-20T15:30:00.332Z,35.67
2019-04-20T15:32:31.237Z,35.90
2019-04-20T15:35:00.921Z,35.73
2019-04-20T15:37:30.958Z,35.56
2019-04-20T15:40:01.194Z,35.45
2019-04-20T15:42:30.627Z,35.78
2019-04-20T15:45:01.153Z,36.81
2019-04-20T15:47:31.966Z,36.09
2019-04-20T15:50:02.256Z,37.31
2019-04-20T15:52:39.963Z,35.92
2019-04-20T15:55:11.816Z,37.10
2019-04-20T15:57:34.911Z,38.70
2019-04-20T16:00:06.678Z,37.99
2019-04-20T16:02:39.044Z,37.68
2019-04-20T16:05:19.025Z,39.40
2019-04-20T16:07:53.484Z,38.75
2019-04-20T16:10:19.594Z,39.00
2019-04-20T16:13:02.965Z,38.25
2019-04-20T16:15:20.264Z,39.71
2019-04-20T16:17:53.013Z,38.62
2019-04-20T16:20:23.565Z,38.83
2019-04-20T16:22:52.269Z,40.00
2019-04-20T16:25:23.552Z,38.70
2019-04-20T16:27:53.836Z,43.25
2019-04-20T16:30:23.445Z,42.49
2019-04-20T16:32:52.868Z,43.19
2019-04-20T16:35:22.599Z,43.21
2019-04-20T16:37:52.697Z,42.07
2019-04-20T16:40:23.415Z,43.73
2019-04-20T16:42:54.227Z,44.88
2019-04-20T16:45:23.779Z,45.02
2019-04-20T16:47:54.407Z,43.84
2019-04-20T16:50:24.767Z,44.24
2019-04-20T16:52:54.965Z,45.60
2019-04-20T16:55:25.140Z,45.23
2019-04-20T16:57:55.539Z,46.76
2019-04-20T17:00:25.531Z,46.16
2019-04-20T17:02:56.169Z,47.03
2019-04-20T17:05:25.930Z,47.84
2019-04-20T17:07:58.337Z,47.70
2019-04-20T17:10:28.864Z,48.05
2019-04-20T17:12:59.804Z,49.02
2019-04-20T17:15:29.711Z,49.84
2019-04-20T17:17:58.967Z,49.27
2019-04-20T17:20:30.673Z,50.05
2019-04-20T17:23:02.110Z,50.56
2019-04-20T17:25:32.240Z,47.41
2019-04-20T17:28:20.687Z,48.82
2019-04-20T17:30:52.924Z,49.51
2019-04-20T17:33:53.381Z,49.58
2019-04-20T17:36:19.803Z,49.79
2019-04-20T17:38:52.603Z,51.21
2019-04-20T17:41:43.030Z,49.27
2019-04-20T17:44:05.841Z,48.94
2019-04-20T17:46:35.791Z,51.24
2019-04-20T17:49:09.281Z,51.47
2019-04-20T17:51:47.569Z,51.60
2019-04-20T17:54:06.974Z,51.24
2019-04-20T17:56:36.241Z,51.63
2019-04-20T17:59:06.118Z,52.47
2019-04-20T18:02:07.870Z,52.49
2019-04-20T18:04:54.908Z,52.32
2019-04-20T18:07:18.305Z,52.65
2019-04-20T18:09:49.286Z,53.05
2019-04-20T18:12:06.247Z,53.22
2019-04-20T18:14:46.069Z,53.37
2019-04-20T18:17:17.880Z,53.79
2019-04-20T18:19:55.107Z,54.43
2019-04-20T18:22:25.763Z,53.38
2019-04-20T18:25:14.700Z,54.19
2019-04-20T18:27:41.561Z,54.23
2019-04-20T18:30:15.520Z,54.49
2019-04-20T18:35:18.755Z,57.05
2019-04-20T18:37:53.628Z,57.86
2019-04-20T18:40:29.010Z,57.68
2019-04-20T18:43:06.363Z,57.92
2019-04-20T18:45:33.740Z,57.77
2019-04-20T18:48:14.658Z,57.48
2019-04-20T18:50:32.865Z,59.56
2019-04-20T18:52:55.891Z,60.44
2019-04-20T18:55:36.527Z,59.23
2019-04-20T18:57:57.279Z,59.38
2019-04-20T19:00:32.459Z,60.28
2019-04-20T19:03:11.140Z,60.17
2019-04-20T19:05:29.583Z,60.61
2019-04-20T19:08:03.368Z,59.65
2019-04-20T19:10:35.008Z,59.34
2019-04-20T19:13:06.241Z,59.12
2019-04-20T19:16:03.583Z,59.17
2019-04-20T19:18:45.226Z,59.58
2019-04-20T19:24:00.277Z,59.77
2019-04-20T19:26:25.603Z,59.87
2019-04-20T19:28:59.402Z,60.18
2019-04-20T19:31:42.721Z,59.32
2019-04-20T19:34:15.337Z,59.94
2019-04-20T19:36:36.774Z,59.84
2019-04-20T19:39:17.258Z,59.10
2019-04-20T19:41:42.250Z,60.09
2019-04-20T19:44:13.579Z,59.16
2019-04-20T19:47:03.295Z,59.71
2019-04-20T19:49:19.265Z,60.77
2019-04-20T19:52:02.889Z,59.86
2019-04-20T19:54:29.988Z,59.45
2019-04-20T19:56:56.324Z,59.05
2019-04-20T19:59:19.821Z,59.04
2019-04-20T20:01:40.319Z,59.05
2019-04-20T20:04:11.511Z,59.81
2019-04-20T20:06:47.250Z,59.36
2019-04-20T20:09:13.343Z,59.92
2019-04-20T20:11:45.008Z,60.09
2019-04-20T20:14:17.960Z,61.12
2019-04-20T20:17:04.169Z,61.49
2019-04-20T20:19:32.342Z,60.79
2019-04-20T20:22:02.297Z,60.97
2019-04-20T20:24:19.656Z,60.37
2019-04-20T20:26:56.357Z,61.05
2019-04-20T20:29:30.524Z,61.61
2019-04-20T20:32:05.263Z,61.33
2019-04-20T20:34:31.094Z,61.54
2019-04-20T20:37:01.786Z,62.46
2019-04-20T20:39:31.070Z,61.83
2019-04-20T20:42:12.869Z,62.27
2019-04-20T20:44:42.804Z,61.59
2019-04-20T20:47:21.788Z,61.04
2019-04-20T20:49:58.511Z,60.66
2019-04-20T20:52:22.023Z,61.59
2019-04-20T20:54:46.325Z,61.21
2019-04-20T20:57:12.690Z,60.74
2019-04-20T20:59:48.203Z,60.22
2019-04-20T21:02:18.001Z,60.16
2019-04-20T21:04:39.530Z,60.10
2019-04-20T21:07:10.972Z,60.81
2019-04-20T21:09:41.826Z,60.44
2019-04-20T21:12:15.906Z,60.57
2019-04-20T21:14:44.121Z,61.13
2019-04-20T21:17:18.446Z,61.18
2019-04-20T21:19:58.183Z,61.32
2019-04-20T21:22:32.449Z,60.53
2019-04-20T21:24:52.963Z,61.31
2019-04-20T21:27:23.943Z,60.25
2019-04-20T21:29:57.855Z,60.13
2019-04-20T21:32:26.156Z,59.90
2019-04-20T21:35:01.263Z,60.09
2019-04-20T21:37:27.292Z,60.87
2019-04-20T21:40:00.550Z,62.79
2019-04-20T21:42:34.788Z,63.91
2019-04-20T21:45:07.706Z,65.64
2019-04-20T21:47:34.671Z,66.86
2019-04-20T21:50:18.734Z,66.91
2019-04-20T21:52:40.773Z,67.41
2019-04-20T21:55:04.228Z,68.05
2019-04-20T21:57:42.064Z,68.09
2019-04-20T22:00:16.812Z,67.95
2019-04-20T22:02:48.573Z,68.45
2019-04-20T22:05:11.426Z,68.01
2019-04-20T22:07:40.770Z,68.18
2019-04-20T22:10:11.675Z,68.02
2019-04-20T22:12:47.592Z,67.67
2019-04-20T22:15:22.077Z,68.00
2019-04-20T22:17:42.783Z,67.56
2019-04-20T22:20:22.775Z,67.63
2019-04-20T22:22:57.151Z,68.32
2019-04-20T22:25:36.339Z,67.78
2019-04-20T22:27:44.323Z,66.91
2019-04-20T22:30:14.402Z,67.19
2019-04-20T22:32:46.989Z,67.87
2019-04-20T22:35:16.241Z,68.05
2019-04-20T22:38:06.989Z,68.28
2019-04-20T22:40:35.217Z,68.44
2019-04-20T22:43:04.293Z,69.19
2019-04-20T22:45:35.133Z,69.05
2019-04-20T22:48:08.203Z,69.17
2019-04-20T22:50:51.053Z,69.67
2019-04-20T22:53:17.938Z,69.63
2019-04-20T22:56:00.379Z,70.45
2019-04-20T22:58:25.009Z,70.10
2019-04-20T23:00:46.740Z,71.35
2019-04-20T23:03:07.237Z,70.37
2019-04-20T23:05:36.571Z,70.94
2019-04-20T23:08:06.713Z,70.74
2019-04-20T23:10:39.996Z,71.34
2019-04-20T23:13:07.366Z,71.15
2019-04-20T23:15:36.380Z,71.17
2019-04-20T23:18:06.334Z,71.55
2019-04-20T23:20:38.485Z,70.83
2019-04-20T23:23:07.198Z,71.52
2019-04-20T23:25:36.507Z,71.24
2019-04-20T23:28:10.189Z,71.57
2019-04-20T23:30:39.359Z,72.18
2019-04-20T23:33:07.780Z,71.82
2019-04-20T23:35:37.568Z,71.43
2019-04-20T23:38:11.061Z,71.76
2019-04-20T23:40:37.773Z,71.64
2019-04-20T23:43:17.664Z,71.59
2019-04-20T23:45:57.136Z,71.47
2019-04-20T23:48:32.409Z,71.76
2019-04-20T23:51:09.934Z,71.80
2019-04-20T23:53:45.518Z,71.70
2019-04-20T23:55:59.594Z,71.68
2019-04-20T23:58:30.979Z,71.93
